Time;durP1;ratioP1;P1;durP2;ratioP2;P2;SDS_P1;SDS_P2;PMS_P1;PMS_P2;Temp;Humidity;BMP_temperature;BMP_pressure;BME280_temperature;BME280_humidity;BME280_pressure;Samples;Min_cycle;Max_cycle;Signal;HPM_P1;HPM_P2
2024/01/29 00:02:23;;;;;;;4.30;2.53;;;;;;;;;;5075526;28;20422;-81
2024/01/29 00:04:49;;;;;;;4.53;3.53;;;;;;;;;;5075182;28;20445;-82
2024/01/29 00:07:15;;;;;;;5.93;3.67;;;;;;;;;;5057605;28;20891;-81
2024/01/29 00:09:41;;;;;;;5.07;2.83;;;;;;;;;;5075077;28;20417;-82
2024/01/29 00:12:07;;;;;;;4.43;3.00;;;;;;;;;;5075027;28;20181;-82
2024/01/29 00:14:33;;;;;;;3.53;2.60;;;;;;;;;;5075729;28;20902;-81
2024/01/29 00:17:00;;;;;;;7.13;4.10;;;;;;;;;;5076823;28;20206;-82
2024/01/29 00:19:26;;;;;;;4.45;3.20;;;;;;;;;;5078827;28;20545;-81
2024/01/29 00:21:52;;;;;;;3.08;2.72;;;;;;;;;;5077930;28;20240;-81
2024/01/29 00:24:18;;;;;;;6.63;3.50;;;;;;;;;;5071681;28;20204;-82
2024/01/29 00:26:44;;;;;;;5.37;2.57;;;;;;;;;;5070092;28;20469;-81
2024/01/29 00:29:10;;;;;;;3.85;3.20;;;;;;;;;;5078923;28;20475;-81
2024/01/29 00:31:36;;;;;;;5.97;2.90;;;;;;;;;;5078921;28;20252;-81
2024/01/29 00:34:02;;;;;;;5.27;3.13;;;;;;;;;;5078723;28;20212;-81
2024/01/29 00:36:29;;;;;;;6.07;3.63;;;;;;;;;;5078465;28;20473;-81
2024/01/29 00:38:55;;;;;;;5.80;3.23;;;;;;;;;;5078797;28;20223;-82
2024/01/29 00:41:21;;;;;;;7.40;3.13;;;;;;;;;;5078515;28;20529;-81
2024/01/29 00:43:47;;;;;;;4.68;3.03;;;;;;;;;;5078317;28;20419;-81
2024/01/29 00:46:13;;;;;;;3.57;3.13;;;;;;;;;;5059621;28;20173;-81
2024/01/29 00:48:39;;;;;;;4.38;2.92;;;;;;;;;;5077904;28;20408;-81
2024/01/29 00:51:08;;;;;;;4.50;2.57;;;;;;;;;;5077806;28;20193;-81
2024/01/29 00:53:34;;;;;;;3.97;3.10;;;;;;;;;;5059811;28;20501;-80
2024/01/29 00:56:00;;;;;;;6.70;3.63;;;;;;;;;;5077669;28;20306;-81
2024/01/29 00:58:26;;;;;;;6.13;3.25;;;;;;;;;;5077964;28;20467;-81
2024/01/29 01:00:52;;;;;;;10.27;3.80;;;;;;;;;;5077527;28;20525;-82
2024/01/29 01:03:18;;;;;;;8.27;3.53;;;;;;;;;;5077635;28;20410;-81
2024/01/29 01:05:44;;;;;;;8.02;3.20;;;;;;;;;;5077628;28;20188;-82
2024/01/29 01:08:10;;;;;;;6.40;3.37;;;;;;;;;;5077410;28;20195;-82
2024/01/29 01:10:36;;;;;;;6.65;3.05;;;;;;;;;;5077625;28;20415;-81
2024/01/29 01:13:03;;;;;;;6.07;3.67;;;;;;;;;;5059079;28;20180;-82
2024/01/29 01:15:29;;;;;;;7.70;3.05;;;;;;;;;;5077350;28;20257;-81
2024/01/29 01:17:56;;;;;;;7.40;2.72;;;;;;;;;;5077736;28;20186;-82
2024/01/29 01:20:22;;;;;;;4.90;2.83;;;;;;;;;;5077683;28;20211;-82
2024/01/29 01:22:48;;;;;;;5.47;3.43;;;;;;;;;;5077745;28;20185;-81
2024/01/29 01:25:14;;;;;;;5.70;3.77;;;;;;;;;;5077324;28;20873;-82
2024/01/29 01:27:40;;;;;;;8.47;3.60;;;;;;;;;;5077101;28;20536;-81
2024/01/29 01:30:07;;;;;;;5.53;2.80;;;;;;;;;;5077028;28;20407;-82
2024/01/29 01:32:33;;;;;;;8.20;3.03;;;;;;;;;;5077622;28;20492;-81
2024/01/29 01:34:59;;;;;;;4.55;3.13;;;;;;;;;;5077007;28;20183;-82
2024/01/29 01:37:25;;;;;;;3.83;2.72;;;;;;;;;;5077072;28;20285;-81
2024/01/29 01:39:52;;;;;;;3.90;3.07;;;;;;;;;;5077299;28;20235;-81
2024/01/29 01:42:19;;;;;;;3.15;2.85;;;;;;;;;;5077028;28;20499;-81
2024/01/29 01:44:48;;;;;;;6.72;2.85;;;;;;;;;;5076282;28;20188;-81
2024/01/29 01:47:14;;;;;;;9.13;3.30;;;;;;;;;;5076697;28;20223;-82
2024/01/29 01:49:41;;;;;;;4.80;3.10;;;;;;;;;;5076585;28;20262;-81
2024/01/29 01:52:07;;;;;;;5.90;3.28;;;;;;;;;;5076307;28;20186;-81
2024/01/29 01:54:33;;;;;;;4.03;3.00;;;;;;;;;;5076262;28;20185;-81
2024/01/29 01:57:00;;;;;;;8.77;3.20;;;;;;;;;;5076531;28;20209;-81
2024/01/29 01:59:26;;;;;;;5.45;3.80;;;;;;;;;;5076249;28;20659;-81
2024/01/29 02:01:53;;;;;;;4.88;2.65;;;;;;;;;;5076903;28;20270;-81
2024/01/29 02:04:19;;;;;;;8.00;3.22;;;;;;;;;;5076670;28;20176;-81
2024/01/29 02:06:46;;;;;;;7.20;3.77;;;;;;;;;;5083927;28;20180;-81
2024/01/29 02:09:13;;;;;;;5.82;3.17;;;;;;;;;;5085637;28;20439;-80
2024/01/29 02:11:38;;;;;;;4.65;3.15;;;;;;;;;;5085418;28;20186;-80
2024/01/29 02:14:05;;;;;;;5.83;3.17;;;;;;;;;;5076629;28;20630;-80
2024/01/29 02:16:31;;;;;;;4.55;2.90;;;;;;;;;;5076702;28;20465;-81
2024/01/29 02:18:57;;;;;;;3.47;2.33;;;;;;;;;;5076281;28;20186;-81
2024/01/29 02:21:23;;;;;;;5.60;3.30;;;;;;;;;;5078424;28;20395;-81
2024/01/29 02:23:48;;;;;;;6.40;3.35;;;;;;;;;;5076646;28;20442;-81
2024/01/29 02:26:14;;;;;;;5.05;3.72;;;;;;;;;;5076648;28;20213;-81
2024/01/29 02:28:40;;;;;;;5.57;3.30;;;;;;;;;;5076426;28;20310;-81
2024/01/29 02:31:06;;;;;;;3.17;2.70;;;;;;;;;;5075973;28;20407;-82
2024/01/29 02:33:32;;;;;;;6.22;3.63;;;;;;;;;;5075841;28;20410;-81
2024/01/29 02:35:58;;;;;;;4.60;3.70;;;;;;;;;;5075701;28;20607;-82
2024/01/29 02:38:24;;;;;;;4.00;3.10;;;;;;;;;;5076180;28;20468;-82
2024/01/29 02:40:50;;;;;;;8.80;3.37;;;;;;;;;;5075535;28;20164;-81
2024/01/29 02:43:16;;;;;;;4.33;2.60;;;;;;;;;;5058195;28;20532;-81
2024/01/29 02:45:42;;;;;;;6.78;3.40;;;;;;;;;;5074975;28;20423;-81
2024/01/29 02:48:08;;;;;;;7.73;3.00;;;;;;;;;;5075759;28;20235;-82
2024/01/29 02:50:34;;;;;;;6.63;3.43;;;;;;;;;;5076076;28;20403;-81
2024/01/29 02:53:00;;;;;;;7.83;2.93;;;;;;;;;;5075882;28;20921;-82
2024/01/29 02:55:26;;;;;;;5.57;3.10;;;;;;;;;;5076281;28;20500;-81
2024/01/29 02:57:52;;;;;;;5.32;3.33;;;;;;;;;;5075844;28;20507;-81
2024/01/29 03:00:18;;;;;;;4.97;3.10;;;;;;;;;;5075683;28;20739;-81
2024/01/29 03:02:44;;;;;;;4.28;3.40;;;;;;;;;;5076001;28;20415;-81
2024/01/29 03:05:10;;;;;;;5.70;3.83;;;;;;;;;;5071911;28;20538;-81
2024/01/29 03:07:36;;;;;;;6.93;3.17;;;;;;;;;;5055879;28;20437;-81
2024/01/29 03:10:02;;;;;;;4.40;3.80;;;;;;;;;;5055522;28;20435;-82
2024/01/29 03:12:28;;;;;;;5.43;3.78;;;;;;;;;;5037966;28;20425;-81
2024/01/29 03:14:54;;;;;;;6.20;3.20;;;;;;;;;;5055610;28;20177;-82
2024/01/29 03:17:20;;;;;;;5.90;3.83;;;;;;;;;;5055674;28;20453;-81
2024/01/29 03:19:46;;;;;;;6.80;2.90;;;;;;;;;;5055988;28;20500;-81
2024/01/29 03:22:12;;;;;;;4.35;3.00;;;;;;;;;;5055382;28;20912;-82
2024/01/29 03:24:38;;;;;;;3.93;2.90;;;;;;;;;;5055426;28;20177;-81
2024/01/29 03:27:04;;;;;;;4.97;3.50;;;;;;;;;;5057419;28;20499;-82
2024/01/29 03:29:30;;;;;;;5.15;3.25;;;;;;;;;;5070912;28;20411;-81
2024/01/29 03:31:56;;;;;;;3.27;2.77;;;;;;;;;;5075662;28;20707;-81
2024/01/29 03:34:22;;;;;;;8.63;3.42;;;;;;;;;;5075232;28;20396;-81
2024/01/29 03:36:48;;;;;;;4.80;3.17;;;;;;;;;;5074943;28;20217;-81
2024/01/29 03:39:14;;;;;;;6.20;3.50;;;;;;;;;;5074997;28;20465;-82
2024/01/29 03:41:40;;;;;;;4.10;3.00;;;;;;;;;;5075559;28;20291;-82
2024/01/29 03:44:05;;;;;;;6.30;3.03;;;;;;;;;;5075676;28;20410;-82
2024/01/29 03:46:31;;;;;;;5.70;3.30;;;;;;;;;;5075703;28;20421;-81
2024/01/29 03:48:57;;;;;;;4.73;2.63;;;;;;;;;;5075347;28;20403;-81
2024/01/29 03:51:23;;;;;;;7.07;3.13;;;;;;;;;;5076518;28;20948;-81
2024/01/29 03:53:49;;;;;;;6.47;3.37;;;;;;;;;;5075740;28;20845;-81
2024/01/29 03:56:15;;;;;;;3.37;3.00;;;;;;;;;;5072115;28;20466;-82
2024/01/29 03:58:42;;;;;;;5.40;2.90;;;;;;;;;;5078391;28;20415;-82
2024/01/29 04:01:08;;;;;;;4.70;3.88;;;;;;;;;;5079010;28;20409;-82
2024/01/29 04:03:34;;;;;;;4.33;3.00;;;;;;;;;;5079368;28;20548;-81
2024/01/29 04:06:00;;;;;;;3.80;2.83;;;;;;;;;;5078708;28;20472;-81
2024/01/29 04:08:26;;;;;;;4.43;3.10;;;;;;;;;;5079203;28;20517;-81
2024/01/29 04:10:52;;;;;;;3.60;3.30;;;;;;;;;;5078880;28;20214;-81
2024/01/29 04:13:18;;;;;;;5.47;3.50;;;;;;;;;;5060726;28;20403;-82
2024/01/29 04:15:43;;;;;;;4.13;3.07;;;;;;;;;;5078979;28;20462;-81
2024/01/29 04:18:09;;;;;;;6.10;3.00;;;;;;;;;;5073799;28;20427;-81
2024/01/29 04:20:35;;;;;;;4.63;3.17;;;;;;;;;;5067937;28;20557;-81
2024/01/29 04:23:01;;;;;;;4.70;3.07;;;;;;;;;;5058417;28;20181;-82
2024/01/29 04:25:27;;;;;;;4.70;4.20;;;;;;;;;;5056931;28;20475;-82
2024/01/29 04:27:53;;;;;;;5.97;3.20;;;;;;;;;;5058520;28;20415;-82
2024/01/29 04:30:19;;;;;;;6.60;3.27;;;;;;;;;;5057783;28;20950;-81
2024/01/29 04:32:45;;;;;;;7.95;3.05;;;;;;;;;;5058280;28;20414;-82
2024/01/29 04:35:11;;;;;;;6.53;3.20;;;;;;;;;;5058691;28;20631;-82
2024/01/29 04:37:37;;;;;;;5.80;3.28;;;;;;;;;;5057977;28;20791;-82
2024/01/29 04:40:04;;;;;;;6.53;2.97;;;;;;;;;;5058634;28;20231;-84
2024/01/29 04:42:30;;;;;;;4.90;3.20;;;;;;;;;;5058068;28;20868;-81
2024/01/29 04:44:56;;;;;;;4.00;3.25;;;;;;;;;;5025570;28;20653;-81
2024/01/29 04:47:22;;;;;;;3.92;3.10;;;;;;;;;;5058204;28;20291;-82
2024/01/29 04:49:48;;;;;;;5.70;3.43;;;;;;;;;;5058160;28;20191;-81
2024/01/29 04:52:14;;;;;;;4.53;3.30;;;;;;;;;;5058342;28;20426;-82
2024/01/29 04:54:40;;;;;;;5.30;3.00;;;;;;;;;;5057974;28;20404;-82
2024/01/29 04:57:06;;;;;;;5.57;3.10;;;;;;;;;;5057511;28;20569;-82
2024/01/29 04:59:32;;;;;;;5.40;2.90;;;;;;;;;;5057876;28;20431;-82
2024/01/29 05:01:58;;;;;;;3.97;3.20;;;;;;;;;;5057546;28;20408;-82
2024/01/29 05:04:24;;;;;;;4.30;3.00;;;;;;;;;;5057013;28;20408;-82
2024/01/29 05:06:50;;;;;;;4.10;2.70;;;;;;;;;;5059955;28;20928;-82
2024/01/29 05:09:17;;;;;;;5.15;3.20;;;;;;;;;;5057761;28;20450;-82
2024/01/29 05:11:43;;;;;;;5.00;3.40;;;;;;;;;;5057731;28;20178;-82
2024/01/29 05:14:09;;;;;;;5.20;3.93;;;;;;;;;;5070415;28;20212;-82
2024/01/29 05:16:35;;;;;;;7.50;3.73;;;;;;;;;;5077655;28;20469;-82
2024/01/29 05:19:01;;;;;;;5.20;3.05;;;;;;;;;;5077472;28;20404;-82
2024/01/29 05:21:27;;;;;;;5.67;3.70;;;;;;;;;;5077950;28;20580;-82
2024/01/29 05:23:53;;;;;;;6.25;4.25;;;;;;;;;;5077791;28;20414;-81
2024/01/29 05:26:19;;;;;;;8.30;4.20;;;;;;;;;;5077698;28;20534;-82
2024/01/29 05:28:45;;;;;;;6.63;2.90;;;;;;;;;;5077007;28;20684;-82
2024/01/29 05:31:11;;;;;;;5.72;3.60;;;;;;;;;;5077112;28;20411;-82
2024/01/29 05:33:37;;;;;;;4.03;3.50;;;;;;;;;;5077289;28;20168;-81
2024/01/29 05:36:03;;;;;;;5.37;2.90;;;;;;;;;;5077386;28;20200;-81
2024/01/29 05:38:31;;;;;;;8.15;3.50;;;;;;;;;;5076887;28;20454;-82
2024/01/29 05:40:57;;;;;;;6.65;3.83;;;;;;;;;;5077318;28;20160;-81
2024/01/29 05:43:23;;;;;;;5.20;3.28;;;;;;;;;;5077294;28;20177;-82
2024/01/29 05:45:49;;;;;;;4.97;3.23;;;;;;;;;;5077023;28;20177;-82
2024/01/29 05:48:15;;;;;;;5.85;3.60;;;;;;;;;;5077155;28;20411;-82
2024/01/29 05:50:41;;;;;;;6.13;3.70;;;;;;;;;;5076852;28;20173;-82
2024/01/29 05:53:07;;;;;;;6.27;3.63;;;;;;;;;;5076843;28;20191;-81
2024/01/29 05:55:33;;;;;;;5.45;3.58;;;;;;;;;;5076801;28;20519;-82
2024/01/29 05:57:59;;;;;;;6.50;3.70;;;;;;;;;;5077101;28;20172;-82
2024/01/29 06:00:24;;;;;;;6.10;4.10;;;;;;;;;;5076715;28;20407;-82
2024/01/29 06:02:50;;;;;;;7.43;3.67;;;;;;;;;;5059118;28;20533;-82
2024/01/29 06:05:17;;;;;;;4.47;3.08;;;;;;;;;;5076698;28;20899;-82
2024/01/29 06:07:43;;;;;;;4.47;3.20;;;;;;;;;;5076174;28;20528;-82
2024/01/29 06:10:09;;;;;;;4.85;3.78;;;;;;;;;;5076155;28;20174;-83
2024/01/29 06:12:36;;;;;;;3.63;2.75;;;;;;;;;;5076282;28;20215;-83
2024/01/29 06:15:02;;;;;;;4.20;3.80;;;;;;;;;;5075718;28;20195;-83
2024/01/29 06:17:28;;;;;;;3.85;3.00;;;;;;;;;;5057372;28;20666;-82
2024/01/29 06:19:55;;;;;;;6.25;3.50;;;;;;;;;;5076444;28;20181;-81
2024/01/29 06:22:21;;;;;;;6.75;3.67;;;;;;;;;;5058154;28;20181;-82
2024/01/29 06:24:46;;;;;;;9.03;3.67;;;;;;;;;;5075735;28;20592;-82
2024/01/29 06:27:12;;;;;;;5.70;3.50;;;;;;;;;;5075856;28;20415;-82
2024/01/29 06:29:38;;;;;;;6.95;4.28;;;;;;;;;;5075815;28;20415;-81
2024/01/29 06:32:04;;;;;;;5.10;3.73;;;;;;;;;;5076352;28;20173;-82
2024/01/29 06:34:33;;;;;;;7.78;4.25;;;;;;;;;;5075828;28;20415;-82
2024/01/29 06:36:59;;;;;;;7.93;4.53;;;;;;;;;;5075796;28;20813;-82
2024/01/29 06:39:25;;;;;;;5.72;3.80;;;;;;;;;;5075430;28;20248;-82
2024/01/29 06:41:51;;;;;;;7.00;4.03;;;;;;;;;;5075730;28;20221;-82
2024/01/29 06:44:17;;;;;;;8.45;4.22;;;;;;;;;;5075801;28;20395;-82
2024/01/29 06:46:43;;;;;;;6.60;4.33;;;;;;;;;;5076043;28;20723;-82
2024/01/29 06:49:24;;;;;;;7.88;4.25;;;;;;;;;;5075312;28;20441;-82
2024/01/29 06:51:50;;;;;;;7.45;4.25;;;;;;;;;;5075968;28;20200;-82
2024/01/29 06:54:16;;;;;;;6.53;4.90;;;;;;;;;;5075724;28;20179;-82
2024/01/29 06:56:42;;;;;;;5.40;4.40;;;;;;;;;;5061590;28;20475;-82
2024/01/29 06:59:08;;;;;;;6.35;4.75;;;;;;;;;;5056054;28;20400;-82
2024/01/29 07:01:34;;;;;;;5.57;4.10;;;;;;;;;;5055292;28;20678;-82
2024/01/29 07:04:00;;;;;;;6.07;5.05;;;;;;;;;;5055165;28;20173;-82
2024/01/29 07:06:26;;;;;;;6.47;4.25;;;;;;;;;;5038103;28;20184;-82
2024/01/29 07:08:52;;;;;;;6.07;4.00;;;;;;;;;;5055603;28;20178;-82
2024/01/29 07:11:18;;;;;;;7.83;4.83;;;;;;;;;;5055592;28;20397;-82
2024/01/29 07:13:44;;;;;;;6.47;3.95;;;;;;;;;;5065366;28;20441;-82
2024/01/29 07:16:10;;;;;;;8.10;5.03;;;;;;;;;;5075794;28;20192;-82
2024/01/29 07:18:36;;;;;;;7.77;4.90;;;;;;;;;;5075833;28;20440;-82
2024/01/29 07:21:02;;;;;;;5.82;4.07;;;;;;;;;;5057854;28;20411;-82
2024/01/29 07:23:28;;;;;;;6.05;4.00;;;;;;;;;;5074760;28;20168;-82
2024/01/29 07:25:55;;;;;;;8.10;4.60;;;;;;;;;;5058762;28;20537;-82
2024/01/29 07:28:21;;;;;;;7.05;4.47;;;;;;;;;;5062003;28;20492;-82
2024/01/29 07:30:47;;;;;;;6.00;4.27;;;;;;;;;;5080029;28;20211;-83
2024/01/29 07:33:13;;;;;;;6.88;3.92;;;;;;;;;;5061731;28;20786;-83
2024/01/29 07:35:39;;;;;;;6.30;4.30;;;;;;;;;;5079050;28;20303;-81
2024/01/29 07:38:05;;;;;;;5.70;4.45;;;;;;;;;;5079597;28;20228;-81
2024/01/29 07:40:32;;;;;;;6.40;5.30;;;;;;;;;;5079535;28;20248;-81
2024/01/29 07:42:58;;;;;;;8.80;5.25;;;;;;;;;;5079118;28;20463;-81
2024/01/29 07:45:25;;;;;;;8.30;4.80;;;;;;;;;;5078188;28;20392;-81
2024/01/29 07:47:51;;;;;;;5.82;4.88;;;;;;;;;;5061021;28;20176;-82
2024/01/29 07:50:17;;;;;;;6.53;4.75;;;;;;;;;;5079252;28;20181;-82
2024/01/29 07:52:43;;;;;;;7.53;4.73;;;;;;;;;;5079781;28;20165;-82
2024/01/29 07:55:09;;;;;;;6.97;4.80;;;;;;;;;;5079191;28;20408;-81
2024/01/29 07:57:37;;;;;;;6.38;4.50;;;;;;;;;;5078877;28;20406;-81
2024/01/29 08:00:03;;;;;;;6.88;4.22;;;;;;;;;;5079127;28;20192;-81
2024/01/29 08:02:30;;;;;;;5.22;4.10;;;;;;;;;;5079121;28;20184;-83
2024/01/29 08:04:56;;;;;;;8.88;4.22;;;;;;;;;;5078795;28;20182;-81
2024/01/29 08:07:22;;;;;;;8.23;4.20;;;;;;;;;;5061154;28;20181;-83
2024/01/29 08:09:48;;;;;;;7.28;5.47;;;;;;;;;;5078678;28;20703;-80
2024/01/29 08:12:14;;;;;;;6.00;4.30;;;;;;;;;;5060994;28;20275;-80
2024/01/29 08:14:40;;;;;;;6.70;4.80;;;;;;;;;;5078468;28;20184;-82
2024/01/29 08:17:06;;;;;;;7.60;4.67;;;;;;;;;;5078560;28;20205;-83
2024/01/29 08:19:32;;;;;;;6.47;4.82;;;;;;;;;;5078248;28;20391;-83
2024/01/29 08:21:58;;;;;;;8.13;4.72;;;;;;;;;;5078705;28;20271;-83
2024/01/29 08:24:24;;;;;;;7.97;5.10;;;;;;;;;;5078389;28;20727;-83
2024/01/29 08:26:50;;;;;;;6.18;5.13;;;;;;;;;;5078645;28;20513;-83
2024/01/29 08:29:16;;;;;;;7.05;4.57;;;;;;;;;;5078472;28;20165;-83
2024/01/29 08:31:42;;;;;;;5.23;4.20;;;;;;;;;;5078256;28;20180;-83
2024/01/29 08:34:08;;;;;;;7.63;4.83;;;;;;;;;;5078766;28;20404;-83
2024/01/29 08:36:34;;;;;;;6.37;4.67;;;;;;;;;;5077687;28;21083;-83
2024/01/29 08:39:00;;;;;;;5.97;4.70;;;;;;;;;;5077353;28;20556;-82
2024/01/29 08:41:26;;;;;;;7.93;5.13;;;;;;;;;;5077916;28;20514;-83
2024/01/29 08:43:52;;;;;;;8.87;5.00;;;;;;;;;;5060582;28;20187;-83
2024/01/29 08:46:18;;;;;;;8.63;5.50;;;;;;;;;;5078141;28;20759;-82
2024/01/29 08:48:43;;;;;;;13.00;6.00;;;;;;;;;;5078168;28;20185;-83
2024/01/29 08:51:09;;;;;;;7.37;5.47;;;;;;;;;;5078556;28;20410;-83
2024/01/29 08:53:36;;;;;;;9.77;5.13;;;;;;;;;;5077704;28;20442;-83
2024/01/29 08:56:05;;;;;;;8.38;4.70;;;;;;;;;;5059708;28;20995;-82
2024/01/29 08:58:32;;;;;;;8.90;6.40;;;;;;;;;;5078040;28;20504;-82
2024/01/29 09:00:58;;;;;;;8.25;5.88;;;;;;;;;;5060660;28;20271;-82
2024/01/29 09:03:24;;;;;;;6.07;4.97;;;;;;;;;;5077920;28;20168;-83
2024/01/29 09:05:51;;;;;;;8.00;4.78;;;;;;;;;;5077992;28;20208;-83
2024/01/29 09:08:17;;;;;;;12.27;5.07;;;;;;;;;;5077231;28;20259;-83
2024/01/29 09:10:43;;;;;;;7.87;5.20;;;;;;;;;;5077409;28;20192;-82
2024/01/29 09:13:09;;;;;;;7.18;5.20;;;;;;;;;;5060158;28;20429;-83
2024/01/29 09:15:35;;;;;;;6.03;4.53;;;;;;;;;;5076846;28;20211;-83
2024/01/29 09:18:00;;;;;;;9.07;5.27;;;;;;;;;;5077892;28;20407;-82
2024/01/29 09:20:28;;;;;;;5.43;4.30;;;;;;;;;;5077156;28;20408;-83
2024/01/29 09:22:54;;;;;;;6.88;4.32;;;;;;;;;;5077525;28;20527;-83
2024/01/29 09:25:20;;;;;;;9.48;4.20;;;;;;;;;;5077255;28;20536;-85
2024/01/29 09:27:46;;;;;;;6.33;4.33;;;;;;;;;;5077395;28;20181;-83
2024/01/29 09:30:12;;;;;;;6.17;4.83;;;;;;;;;;5077013;28;20457;-83
2024/01/29 09:32:38;;;;;;;5.45;4.65;;;;;;;;;;5076788;28;20396;-83
2024/01/29 09:35:04;;;;;;;5.30;4.77;;;;;;;;;;5080233;28;20699;-83
2024/01/29 09:37:30;;;;;;;6.32;4.43;;;;;;;;;;5082748;28;20403;-83
2024/01/29 09:39:56;;;;;;;6.67;4.20;;;;;;;;;;5076206;28;20225;-83
2024/01/29 09:42:28;;;;;;;5.40;4.18;;;;;;;;;;5076255;28;20412;-84
2024/01/29 09:44:54;;;;;;;4.70;4.28;;;;;;;;;;5076571;28;20165;-83
2024/01/29 09:47:21;;;;;;;8.60;4.53;;;;;;;;;;5076717;28;20172;-82
2024/01/29 09:49:48;;;;;;;7.97;4.82;;;;;;;;;;5076121;28;20169;-83
2024/01/29 09:52:14;;;;;;;5.82;4.50;;;;;;;;;;5076960;28;20176;-83
2024/01/29 09:54:41;;;;;;;5.72;4.30;;;;;;;;;;5076345;28;20177;-83
2024/01/29 09:57:11;;;;;;;6.68;3.95;;;;;;;;;;5076533;28;20205;-83
2024/01/29 09:59:37;;;;;;;7.40;4.88;;;;;;;;;;5075994;28;20183;-83
2024/01/29 10:02:03;;;;;;;6.45;4.88;;;;;;;;;;5076158;28;20196;-83
2024/01/29 10:04:29;;;;;;;8.27;4.70;;;;;;;;;;5075927;28;20181;-83
2024/01/29 10:06:55;;;;;;;6.82;4.60;;;;;;;;;;5079418;28;20188;-83
2024/01/29 10:09:21;;;;;;;13.70;5.27;;;;;;;;;;5096542;28;20180;-83
2024/01/29 10:11:49;;;;;;;6.80;4.17;;;;;;;;;;5081191;28;20772;-83
2024/01/29 10:14:16;;;;;;;7.75;4.82;;;;;;;;;;5054763;28;20821;-82
2024/01/29 10:16:42;;;;;;;5.20;4.70;;;;;;;;;;5056017;28;20198;-83
2024/01/29 10:19:09;;;;;;;4.63;4.13;;;;;;;;;;5055805;28;20438;-83
2024/01/29 10:21:38;;;;;;;10.17;5.23;;;;;;;;;;5064196;28;20776;-83
2024/01/29 10:24:05;;;;;;;6.10;4.30;;;;;;;;;;5101639;28;20467;-83
2024/01/29 10:26:30;;;;;;;9.33;4.77;;;;;;;;;;5100577;28;20455;-83
2024/01/29 10:29:01;;;;;;;7.73;4.80;;;;;;;;;;5096666;28;20400;-83
2024/01/29 10:31:27;;;;;;;8.43;5.47;;;;;;;;;;5095801;28;20497;-83
2024/01/29 10:33:54;;;;;;;4.67;3.77;;;;;;;;;;5096127;28;20448;-83
2024/01/29 10:36:21;;;;;;;9.17;4.57;;;;;;;;;;5095515;28;20470;-81
2024/01/29 10:38:47;;;;;;;5.90;4.53;;;;;;;;;;5095123;28;20553;-81
2024/01/29 10:41:17;;;;;;;4.80;4.07;;;;;;;;;;5055758;28;20395;-80
2024/01/29 10:43:47;;;;;;;6.07;4.73;;;;;;;;;;5055199;28;20414;-83
2024/01/29 10:46:18;;;;;;;5.40;4.23;;;;;;;;;;5055507;28;20443;-83
2024/01/29 10:48:45;;;;;;;6.87;5.00;;;;;;;;;;5055101;28;20487;-81
2024/01/29 10:51:12;;;;;;;7.80;4.63;;;;;;;;;;5055127;28;20415;-83
2024/01/29 10:53:40;;;;;;;9.40;5.43;;;;;;;;;;5054713;28;20766;-83
2024/01/29 10:56:07;;;;;;;8.30;4.70;;;;;;;;;;5057691;28;20470;-83
2024/01/29 10:58:33;;;;;;;7.10;4.40;;;;;;;;;;5074572;28;20417;-83
2024/01/29 11:00:59;;;;;;;5.57;4.53;;;;;;;;;;5074296;28;20760;-83
2024/01/29 11:03:26;;;;;;;6.07;4.00;;;;;;;;;;5072839;28;20449;-83
2024/01/29 11:05:57;;;;;;;5.10;4.17;;;;;;;;;;5063867;28;20423;-83
2024/01/29 11:08:26;;;;;;;5.90;4.53;;;;;;;;;;5074724;28;20419;-83
2024/01/29 11:10:52;;;;;;;9.60;4.83;;;;;;;;;;5074977;28;20377;-83
2024/01/29 11:13:19;;;;;;;11.33;4.27;;;;;;;;;;5074719;28;20415;-83
2024/01/29 11:15:45;;;;;;;6.70;3.80;;;;;;;;;;5074180;28;20442;-82
2024/01/29 11:18:11;;;;;;;7.50;3.83;;;;;;;;;;5074182;28;20451;-81
2024/01/29 11:20:40;;;;;;;5.37;4.37;;;;;;;;;;5074330;28;20410;-82
2024/01/29 11:23:06;;;;;;;9.20;4.20;;;;;;;;;;5074524;28;20403;-82
2024/01/29 11:25:32;;;;;;;6.27;3.83;;;;;;;;;;5074169;28;20374;-82
2024/01/29 11:28:00;;;;;;;6.27;3.70;;;;;;;;;;5074221;28;20893;-82
2024/01/29 11:30:27;;;;;;;4.53;3.67;;;;;;;;;;5074531;28;20374;-82
2024/01/29 11:32:55;;;;;;;6.60;3.93;;;;;;;;;;5074164;28;20430;-82
2024/01/29 11:35:23;;;;;;;4.97;3.60;;;;;;;;;;5073792;28;20374;-81
2024/01/29 11:37:50;;;;;;;6.43;4.60;;;;;;;;;;5073595;28;20454;-82
2024/01/29 11:40:36;;;;;;;3.73;3.40;;;;;;;;;;5056143;28;20487;-82
2024/01/29 11:43:04;;;;;;;4.37;3.87;;;;;;;;;;5074212;28;20430;-82
2024/01/29 11:45:30;;;;;;;4.87;3.63;;;;;;;;;;5075345;28;20814;-82
2024/01/29 11:47:56;;;;;;;4.60;3.57;;;;;;;;;;5075716;28;20469;-82
2024/01/29 11:50:24;;;;;;;5.63;3.80;;;;;;;;;;5074119;28;20484;-81
2024/01/29 11:52:50;;;;;;;8.93;3.90;;;;;;;;;;5074354;28;20457;-82
2024/01/29 11:55:17;;;;;;;4.83;3.70;;;;;;;;;;5056377;28;20397;-81
2024/01/29 11:57:47;;;;;;;8.00;4.60;;;;;;;;;;5073610;28;20406;-82
2024/01/29 12:00:18;;;;;;;3.93;3.50;;;;;;;;;;5073421;28;20427;-81
2024/01/29 12:02:44;;;;;;;5.30;3.93;;;;;;;;;;5057053;28;20399;-82
2024/01/29 12:05:13;;;;;;;4.60;3.77;;;;;;;;;;5073928;28;20374;-82
2024/01/29 12:07:39;;;;;;;6.53;4.30;;;;;;;;;;5073178;28;20430;-82
2024/01/29 12:10:05;;;;;;;4.47;3.60;;;;;;;;;;5073791;28;20389;-81
2024/01/29 12:12:31;;;;;;;4.17;3.40;;;;;;;;;;5075295;28;20385;-82
2024/01/29 12:14:57;;;;;;;5.30;3.43;;;;;;;;;;5077553;28;20506;-82
2024/01/29 12:17:24;;;;;;;7.10;3.80;;;;;;;;;;5077328;28;20467;-81
2024/01/29 12:19:51;;;;;;;4.40;3.80;;;;;;;;;;5076759;28;20801;-82
2024/01/29 12:22:21;;;;;;;5.00;3.90;;;;;;;;;;5076929;28;20411;-82
2024/01/29 12:24:47;;;;;;;4.27;3.87;;;;;;;;;;5076764;28;20793;-82
2024/01/29 12:27:13;;;;;;;5.20;3.70;;;;;;;;;;5059375;28;20911;-81
2024/01/29 12:29:39;;;;;;;5.00;3.53;;;;;;;;;;5076869;28;20404;-82
2024/01/29 12:32:12;;;;;;;6.23;3.70;;;;;;;;;;5077034;28;20441;-82
2024/01/29 12:34:48;;;;;;;8.90;5.67;;;;;;;;;;5076983;28;20383;-82
2024/01/29 12:37:21;;;;;;;5.33;4.47;;;;;;;;;;5077106;28;20463;-82
2024/01/29 12:39:53;;;;;;;5.70;3.20;;;;;;;;;;5076090;28;20506;-82
2024/01/29 12:42:20;;;;;;;5.10;3.80;;;;;;;;;;5077255;28;20887;-81
2024/01/29 12:44:48;;;;;;;4.30;3.90;;;;;;;;;;5062601;28;20501;-82
2024/01/29 12:47:14;;;;;;;5.07;3.97;;;;;;;;;;5056996;28;20405;-82
2024/01/29 12:49:41;;;;;;;6.67;4.00;;;;;;;;;;5056630;28;20870;-82
2024/01/29 12:52:09;;;;;;;9.17;4.90;;;;;;;;;;5056875;28;20386;-82
2024/01/29 12:54:35;;;;;;;6.70;4.17;;;;;;;;;;5072824;28;20819;-82
2024/01/29 12:57:01;;;;;;;7.27;4.70;;;;;;;;;;5076904;28;20561;-82
2024/01/29 12:59:27;;;;;;;7.73;4.90;;;;;;;;;;5076642;28;20403;-82
2024/01/29 13:01:57;;;;;;;8.00;4.47;;;;;;;;;;5075993;28;20436;-82
2024/01/29 13:04:23;;;;;;;6.60;4.63;;;;;;;;;;5058708;28;20427;-82
2024/01/29 13:06:49;;;;;;;6.10;4.70;;;;;;;;;;5076100;28;20791;-82
2024/01/29 13:09:15;;;;;;;7.10;4.60;;;;;;;;;;5076667;28;20410;-82
2024/01/29 13:11:41;;;;;;;5.10;4.60;;;;;;;;;;5076064;28;20889;-82
2024/01/29 13:14:07;;;;;;;7.13;5.20;;;;;;;;;;5061790;28;20398;-82
2024/01/29 13:16:33;;;;;;;11.03;4.80;;;;;;;;;;5056159;28;20474;-81
2024/01/29 13:18:59;;;;;;;7.17;4.20;;;;;;;;;;5056788;28;20382;-82
2024/01/29 13:21:25;;;;;;;7.90;4.80;;;;;;;;;;5055729;28;20378;-82
2024/01/29 13:23:51;;;;;;;6.10;4.80;;;;;;;;;;5054997;28;20435;-82
2024/01/29 13:26:17;;;;;;;9.50;4.83;;;;;;;;;;5056039;28;20779;-82
2024/01/29 13:28:43;;;;;;;8.40;5.53;;;;;;;;;;5055657;28;20902;-82
2024/01/29 13:31:09;;;;;;;7.37;5.30;;;;;;;;;;5055554;28;20410;-82
2024/01/29 13:33:35;;;;;;;9.17;5.40;;;;;;;;;;5056106;28;20408;-81
2024/01/29 13:36:02;;;;;;;10.10;5.50;;;;;;;;;;5055794;28;20825;-82
2024/01/29 13:38:28;;;;;;;6.17;4.77;;;;;;;;;;5058277;28;20904;-82
2024/01/29 13:40:55;;;;;;;6.50;5.70;;;;;;;;;;5078143;28;20865;-82
2024/01/29 13:43:21;;;;;;;9.03;5.50;;;;;;;;;;5096060;28;20467;-81
2024/01/29 13:45:48;;;;;;;8.70;5.70;;;;;;;;;;5095584;28;20501;-82
2024/01/29 13:48:14;;;;;;;8.27;6.27;;;;;;;;;;5095797;28;20963;-82
2024/01/29 13:50:39;;;;;;;9.93;5.27;;;;;;;;;;5095505;28;20469;-82
2024/01/29 13:53:06;;;;;;;9.87;7.17;;;;;;;;;;5095649;28;20476;-82
2024/01/29 13:55:32;;;;;;;8.30;5.47;;;;;;;;;;5058940;28;20515;-82
2024/01/29 13:57:58;;;;;;;7.00;5.43;;;;;;;;;;5075329;28;20978;-82
2024/01/29 14:00:24;;;;;;;15.60;6.77;;;;;;;;;;5075341;28;20513;-82
2024/01/29 14:02:51;;;;;;;9.13;6.43;;;;;;;;;;5074925;28;20507;-82
2024/01/29 14:05:17;;;;;;;7.80;5.30;;;;;;;;;;5075302;28;20446;-82
2024/01/29 14:07:43;;;;;;;5.10;4.60;;;;;;;;;;5075137;28;20411;-82
2024/01/29 14:10:09;;;;;;;9.60;6.20;;;;;;;;;;5075171;28;20469;-82
2024/01/29 14:12:35;;;;;;;7.03;5.70;;;;;;;;;;5075160;28;20436;-82
2024/01/29 14:15:03;;;;;;;10.03;7.30;;;;;;;;;;5074791;28;20442;-82
2024/01/29 14:17:29;;;;;;;6.80;5.87;;;;;;;;;;5075092;28;20478;-82
2024/01/29 14:19:55;;;;;;;8.93;5.83;;;;;;;;;;5074558;28;20415;-82
2024/01/29 14:22:23;;;;;;;10.97;5.57;;;;;;;;;;5057297;28;20411;-82
2024/01/29 14:24:49;;;;;;;7.40;5.87;;;;;;;;;;5074555;28;20488;-82
2024/01/29 14:27:15;;;;;;;7.67;5.50;;;;;;;;;;5074995;28;20803;-82
2024/01/29 14:29:41;;;;;;;6.53;5.23;;;;;;;;;;5074443;28;20403;-82
2024/01/29 14:32:08;;;;;;;7.30;5.03;;;;;;;;;;5074606;28;20962;-82
2024/01/29 14:34:34;;;;;;;6.27;5.63;;;;;;;;;;5057398;28;20411;-81
2024/01/29 14:37:00;;;;;;;6.53;5.30;;;;;;;;;;5074413;28;20462;-82
2024/01/29 14:39:26;;;;;;;11.07;6.40;;;;;;;;;;5074354;28;20443;-82